createdAt,value
2019-03-09T00:02:09.190Z,7.60
2019-03-09T00:04:37.889Z,7.60
2019-03-09T00:07:06.744Z,7.70
2019-03-09T00:09:35.432Z,7.70
2019-03-09T00:12:04.236Z,7.70
2019-03-09T00:14:33.368Z,7.70
2019-03-09T00:17:02.104Z,7.80
2019-03-09T00:19:30.808Z,7.80
2019-03-09T00:21:59.617Z,7.90
2019-03-09T00:24:34.624Z,7.90
2019-03-09T00:27:07.635Z,8.00
2019-03-09T00:29:42.873Z,8.00
2019-03-09T00:32:15.247Z,8.10
2019-03-09T00:34:44.073Z,8.20
2019-03-09T00:37:12.969Z,8.20
2019-03-09T00:39:41.670Z,8.10
2019-03-09T00:42:10.397Z,8.10
2019-03-09T00:44:40.312Z,8.00
2019-03-09T00:47:09.917Z,7.70
2019-03-09T00:49:38.906Z,7.70
2019-03-09T00:52:07.822Z,7.80
2019-03-09T00:54:36.796Z,7.80
2019-03-09T00:57:05.563Z,7.70
2019-03-09T00:59:34.478Z,7.70
2019-03-09T01:02:03.264Z,7.80
2019-03-09T01:04:32.336Z,7.80
2019-03-09T01:07:01.291Z,7.80
2019-03-09T01:09:30.220Z,7.70
2019-03-09T01:11:59.447Z,7.70
2019-03-09T01:14:28.409Z,7.70
2019-03-09T01:16:57.561Z,7.70
2019-03-09T01:19:26.330Z,7.60
2019-03-09T01:21:56.617Z,7.50
2019-03-09T01:24:25.748Z,7.40
2019-03-09T01:26:54.457Z,7.40
2019-03-09T01:29:23.509Z,7.30
2019-03-09T01:31:52.240Z,7.30
2019-03-09T01:34:20.941Z,7.30
2019-03-09T01:36:49.947Z,7.20
2019-03-09T01:39:21.698Z,7.20
2019-03-09T01:41:50.686Z,7.20
2019-03-09T01:44:19.596Z,7.20
2019-03-09T01:46:48.281Z,7.20
2019-03-09T01:49:18.776Z,7.20
2019-03-09T01:51:47.487Z,7.20
2019-03-09T01:54:16.302Z,7.20
2019-03-09T01:56:45.060Z,7.20
2019-03-09T01:59:14.551Z,7.10
2019-03-09T02:01:43.800Z,7.10
2019-03-09T02:04:12.527Z,7.10
2019-03-09T02:06:41.484Z,7.10
2019-03-09T02:09:10.362Z,7.10
2019-03-09T02:11:39.212Z,7.10
2019-03-09T02:14:08.493Z,7.10
2019-03-09T02:16:37.178Z,7.10
2019-03-09T02:19:06.277Z,7.00
2019-03-09T02:21:35.121Z,7.00
2019-03-09T02:24:04.245Z,7.00
2019-03-09T02:26:33.333Z,7.00
2019-03-09T02:29:02.129Z,7.00
2019-03-09T02:31:30.865Z,7.00
2019-03-09T02:34:02.131Z,7.00
2019-03-09T02:36:31.056Z,7.10
2019-03-09T02:39:13.564Z,7.10
2019-03-09T02:41:43.688Z,7.10
2019-03-09T02:44:12.481Z,7.20
2019-03-09T02:46:41.387Z,7.20
2019-03-09T02:49:10.147Z,7.20
2019-03-09T02:51:39.144Z,7.20
2019-03-09T02:54:08.143Z,7.30
2019-03-09T02:56:37.124Z,7.30
2019-03-09T02:59:06.049Z,7.30
2019-03-09T03:01:45.213Z,7.30
2019-03-09T03:04:14.349Z,7.30
2019-03-09T03:06:43.070Z,7.40
2019-03-09T03:09:12.226Z,7.40
2019-03-09T03:11:41.724Z,7.30
2019-03-09T03:14:10.721Z,7.40
2019-03-09T03:16:39.420Z,7.30
2019-03-09T03:19:41.199Z,7.40
2019-03-09T03:22:09.903Z,7.40
2019-03-09T03:24:38.613Z,7.40
2019-03-09T03:27:07.390Z,7.50
2019-03-09T03:29:36.409Z,7.50
2019-03-09T03:32:05.162Z,7.40
2019-03-09T03:34:34.500Z,7.50
2019-03-09T03:37:03.236Z,7.50
2019-03-09T03:39:31.945Z,7.50
2019-03-09T03:42:00.911Z,7.60
2019-03-09T03:44:29.641Z,7.60
2019-03-09T03:46:58.343Z,7.60
2019-03-09T03:49:27.428Z,7.70
2019-03-09T03:51:56.477Z,7.70
2019-03-09T03:54:25.301Z,7.70
2019-03-09T03:56:54.073Z,7.70
2019-03-09T03:59:23.100Z,7.70
2019-03-09T04:01:51.959Z,7.70
2019-03-09T04:04:20.964Z,7.80
2019-03-09T04:06:50.475Z,7.80
2019-03-09T04:09:20.672Z,7.80
2019-03-09T04:11:49.825Z,7.80
2019-03-09T04:14:18.566Z,7.90
2019-03-09T04:16:47.385Z,7.90
2019-03-09T04:19:16.187Z,8.00
2019-03-09T04:21:44.892Z,8.00
2019-03-09T04:24:13.708Z,8.00
2019-03-09T04:26:42.545Z,8.00
2019-03-09T04:29:11.255Z,8.00
2019-03-09T04:31:40.376Z,8.10
2019-03-09T04:34:09.384Z,8.00
2019-03-09T04:36:38.137Z,8.00
2019-03-09T04:39:07.674Z,8.10
2019-03-09T04:41:36.383Z,8.00
2019-03-09T04:44:05.107Z,8.00
2019-03-09T04:46:34.016Z,8.10
2019-03-09T04:49:02.790Z,8.10
2019-03-09T04:51:31.488Z,8.10
2019-03-09T04:54:00.519Z,8.10
2019-03-09T04:56:29.271Z,8.20
2019-03-09T04:58:57.990Z,8.20
2019-03-09T05:01:26.879Z,8.20
2019-03-09T05:04:34.145Z,8.20
2019-03-09T05:07:03.219Z,8.20
2019-03-09T05:09:52.683Z,8.20
2019-03-09T05:12:21.600Z,8.30
2019-03-09T05:14:50.303Z,8.30
2019-03-09T05:17:19.148Z,8.30
2019-03-09T05:19:47.893Z,8.30
2019-03-09T05:22:16.623Z,8.30
2019-03-09T05:24:45.379Z,8.40
2019-03-09T05:27:14.224Z,8.40
2019-03-09T05:29:42.929Z,8.40
2019-03-09T05:32:11.664Z,8.40
2019-03-09T05:34:40.500Z,8.40
2019-03-09T05:37:09.872Z,8.40
2019-03-09T05:39:38.639Z,8.40
2019-03-09T05:42:07.366Z,8.40
2019-03-09T05:44:36.177Z,8.40
2019-03-09T05:47:05.009Z,8.40
2019-03-09T05:49:33.805Z,8.50
2019-03-09T05:52:33.646Z,8.40
2019-03-09T05:55:07.736Z,8.40
2019-03-09T05:57:36.515Z,8.40
2019-03-09T06:00:07.456Z,8.40
2019-03-09T06:02:36.325Z,8.30
2019-03-09T06:05:21.353Z,8.30
2019-03-09T06:07:50.132Z,8.30
2019-03-09T06:10:18.904Z,8.20
2019-03-09T06:12:47.760Z,8.30
2019-03-09T06:15:18.092Z,8.30
2019-03-09T06:17:46.908Z,8.30
2019-03-09T06:20:15.963Z,8.30
2019-03-09T06:22:45.256Z,8.40
2019-03-09T06:25:14.116Z,8.40
2019-03-09T06:27:43.031Z,8.40
2019-03-09T06:30:12.108Z,8.30
2019-03-09T06:33:17.173Z,8.40
2019-03-09T06:35:48.836Z,8.50
2019-03-09T06:38:39.521Z,8.70
2019-03-09T06:41:11.684Z,9.10
2019-03-09T06:43:40.730Z,9.60
2019-03-09T06:46:09.423Z,9.90
2019-03-09T06:48:38.346Z,10.20
2019-03-09T06:51:07.115Z,10.70
2019-03-09T06:53:35.838Z,10.20
2019-03-09T06:56:04.717Z,9.70
2019-03-09T06:58:33.592Z,9.40
2019-03-09T07:01:18.332Z,9.30
2019-03-09T07:03:47.236Z,9.20
2019-03-09T07:06:16.771Z,9.10
2019-03-09T07:08:45.553Z,9.10
2019-03-09T07:11:14.372Z,9.30
2019-03-09T07:13:52.360Z,10.00
2019-03-09T07:16:13.949Z,9.90
2019-03-09T07:18:44.543Z,9.70
2019-03-09T07:21:13.255Z,9.60
2019-03-09T07:23:42.515Z,9.40
2019-03-09T07:26:11.549Z,9.30
2019-03-09T07:28:40.696Z,9.30
2019-03-09T07:31:09.395Z,9.30
2019-03-09T07:33:38.103Z,9.30
2019-03-09T07:36:07.105Z,9.30
2019-03-09T07:38:35.859Z,9.30
2019-03-09T07:41:04.985Z,9.30
2019-03-09T07:43:33.677Z,9.30
2019-03-09T07:46:02.515Z,9.30
2019-03-09T07:48:31.344Z,9.30
2019-03-09T07:51:00.278Z,9.30
2019-03-09T07:53:29.196Z,9.30
2019-03-09T07:55:57.975Z,9.40
2019-03-09T07:58:29.098Z,9.40
2019-03-09T08:00:58.156Z,9.40
2019-03-09T08:03:26.848Z,9.40
2019-03-09T08:05:55.877Z,9.50
2019-03-09T08:08:24.724Z,9.50
2019-03-09T08:10:53.676Z,9.50
2019-03-09T08:13:22.586Z,9.50
2019-03-09T08:15:51.392Z,9.50
2019-03-09T08:18:20.095Z,9.50
2019-03-09T08:20:49.007Z,9.50
2019-03-09T08:23:17.800Z,9.60
2019-03-09T08:25:46.513Z,9.60
2019-03-09T08:28:16.427Z,9.60
2019-03-09T08:30:45.488Z,9.60
2019-03-09T08:33:14.261Z,9.60
2019-03-09T08:35:43.029Z,9.60
2019-03-09T08:38:12.205Z,9.60
2019-03-09T08:40:42.791Z,9.60
2019-03-09T08:43:11.920Z,9.70
2019-03-09T08:45:40.613Z,9.70
2019-03-09T08:48:09.384Z,9.60
2019-03-09T08:50:38.256Z,9.70
2019-03-09T08:53:06.964Z,9.60
2019-03-09T08:55:37.491Z,9.60
2019-03-09T08:58:06.311Z,9.70
2019-03-09T09:00:35.985Z,9.70
2019-03-09T09:03:04.753Z,9.70
2019-03-09T09:05:33.541Z,9.80
2019-03-09T09:08:03.954Z,9.80
2019-03-09T09:10:33.224Z,9.90
2019-03-09T09:13:02.502Z,10.00
2019-03-09T09:15:31.285Z,10.10
2019-03-09T09:17:59.993Z,10.20
2019-03-09T09:20:29.675Z,10.20
2019-03-09T09:22:58.435Z,10.20
2019-03-09T09:25:27.333Z,10.30
2019-03-09T09:27:56.223Z,10.30
2019-03-09T09:30:26.332Z,10.30
2019-03-09T09:32:55.192Z,10.40
2019-03-09T09:35:24.092Z,10.50
2019-03-09T09:37:53.086Z,10.50
2019-03-09T09:40:23.127Z,10.40
2019-03-09T09:42:52.391Z,10.40
2019-03-09T09:45:21.699Z,10.40
2019-03-09T09:47:50.647Z,10.40
2019-03-09T09:50:19.735Z,10.40
2019-03-09T09:52:48.513Z,10.40
2019-03-09T09:55:17.992Z,10.40
2019-03-09T09:57:46.779Z,10.40
2019-03-09T10:00:21.488Z,10.40
2019-03-09T10:02:50.296Z,10.50
2019-03-09T10:05:19.479Z,10.50
2019-03-09T10:07:48.448Z,10.50
2019-03-09T10:10:18.711Z,10.40
2019-03-09T10:12:47.436Z,10.40
2019-03-09T10:15:22.749Z,10.40
2019-03-09T10:17:51.545Z,10.40
2019-03-09T10:20:20.640Z,10.40
2019-03-09T10:22:49.341Z,10.50
2019-03-09T10:25:18.097Z,10.50
2019-03-09T10:27:47.281Z,10.60
2019-03-09T10:30:20.760Z,10.60
2019-03-09T10:32:49.864Z,10.60
2019-03-09T10:35:18.807Z,10.60
2019-03-09T10:37:47.943Z,10.70
2019-03-09T10:40:16.893Z,10.60
2019-03-09T10:42:45.682Z,10.60
2019-03-09T10:45:15.020Z,10.60
2019-03-09T10:47:43.728Z,10.60
2019-03-09T10:50:14.152Z,10.60
2019-03-09T10:52:43.260Z,10.60
2019-03-09T10:55:14.847Z,10.60
2019-03-09T10:57:44.398Z,10.50
2019-03-09T11:00:17.413Z,10.50
2019-03-09T11:02:46.884Z,10.50
2019-03-09T11:05:16.052Z,10.60
2019-03-09T11:07:45.005Z,10.60
2019-03-09T11:10:13.927Z,10.60
2019-03-09T11:12:43.152Z,10.60
2019-03-09T11:15:12.436Z,10.60
2019-03-09T11:17:42.060Z,10.60
2019-03-09T11:20:12.581Z,10.70
2019-03-09T11:22:41.483Z,10.80
2019-03-09T11:25:10.668Z,10.90
2019-03-09T11:27:39.448Z,10.90
2019-03-09T11:30:16.351Z,11.10
2019-03-09T11:32:45.168Z,11.20
2019-03-09T11:35:13.863Z,11.20
2019-03-09T11:37:45.869Z,11.20
2019-03-09T11:40:15.316Z,11.20
2019-03-09T11:42:44.257Z,11.30
2019-03-09T11:45:13.481Z,11.30
2019-03-09T11:47:42.441Z,11.30
2019-03-09T11:50:11.734Z,11.30
2019-03-09T11:52:40.856Z,11.20
2019-03-09T11:55:10.312Z,11.40
2019-03-09T11:57:39.304Z,11.40
2019-03-09T12:00:10.629Z,11.50
2019-03-09T12:02:39.461Z,11.50
2019-03-09T12:05:11.632Z,11.50
2019-03-09T12:07:41.928Z,11.80
2019-03-09T12:10:11.453Z,12.20
2019-03-09T12:12:40.444Z,12.00
2019-03-09T12:15:13.396Z,12.20
2019-03-09T12:17:42.732Z,12.60
2019-03-09T12:20:12.848Z,12.60
2019-03-09T12:22:41.624Z,13.00
2019-03-09T12:25:16.972Z,12.90
2019-03-09T12:27:45.888Z,12.50
2019-03-09T12:30:20.822Z,12.60
2019-03-09T12:32:51.220Z,12.40
2019-03-09T12:35:20.064Z,12.40
2019-03-09T12:37:48.780Z,12.70
2019-03-09T12:40:18.090Z,12.60
2019-03-09T12:42:46.959Z,12.40
2019-03-09T12:45:16.785Z,12.50
2019-03-09T12:47:45.624Z,12.40
2019-03-09T12:50:17.251Z,12.20
2019-03-09T12:52:48.725Z,12.30
2019-03-09T12:55:17.456Z,12.40
2019-03-09T12:57:48.552Z,12.50
2019-03-09T13:00:18.309Z,12.50
2019-03-09T13:02:47.676Z,12.50
2019-03-09T13:05:17.561Z,12.50
2019-03-09T13:07:47.125Z,12.40
2019-03-09T13:10:16.934Z,12.40
2019-03-09T13:12:46.397Z,12.20
2019-03-09T13:15:16.296Z,12.10
2019-03-09T13:17:46.073Z,12.10
2019-03-09T13:20:15.624Z,12.10
2019-03-09T13:22:45.112Z,12.20
2019-03-09T13:57:46.001Z,11.80
2019-03-09T14:00:15.900Z,11.70
2019-03-09T14:02:54.293Z,11.50
2019-03-09T14:05:26.653Z,11.30
2019-03-09T14:18:40.303Z,9.80
2019-03-09T14:21:11.033Z,9.70
2019-03-09T14:23:39.751Z,9.80
2019-03-09T14:26:08.507Z,9.70
2019-03-09T14:31:20.583Z,9.90
2019-03-09T14:33:54.120Z,9.90
2019-03-09T14:36:26.518Z,9.90
2019-03-09T14:44:08.074Z,10.10
2019-03-09T15:00:20.267Z,9.00
2019-03-09T15:02:51.269Z,9.00
2019-03-09T15:05:21.541Z,9.00
2019-03-09T15:07:51.484Z,9.00
2019-03-09T15:10:20.456Z,9.00
2019-03-09T15:12:49.724Z,9.00
2019-03-09T15:15:18.788Z,9.20
2019-03-09T15:17:47.611Z,9.50
2019-03-09T15:20:16.872Z,9.70
2019-03-09T15:22:45.783Z,9.90
2019-03-09T15:25:17.054Z,9.80
2019-03-09T15:27:46.043Z,9.80
2019-03-09T15:30:15.482Z,9.80
2019-03-09T15:32:45.867Z,9.80
2019-03-09T15:35:16.191Z,9.80
2019-03-09T15:37:45.208Z,9.90
2019-03-09T15:40:17.206Z,10.00
2019-03-09T15:42:46.318Z,10.10
2019-03-09T15:45:15.679Z,10.00
2019-03-09T15:47:44.536Z,9.90
2019-03-09T15:50:14.244Z,9.80
2019-03-09T15:52:43.034Z,9.80
2019-03-09T15:55:12.280Z,9.70
2019-03-09T15:57:41.341Z,9.70
2019-03-09T16:00:15.558Z,9.40
2019-03-09T16:02:44.260Z,9.00
2019-03-09T16:05:13.100Z,8.70
2019-03-09T16:07:42.404Z,8.70
2019-03-09T16:10:13.169Z,8.70
2019-03-09T16:12:42.908Z,8.90
2019-03-09T16:15:13.648Z,9.10
2019-03-09T16:17:42.365Z,9.20
2019-03-09T16:20:15.670Z,9.20
2019-03-09T16:22:45.238Z,9.20
2019-03-09T16:25:14.208Z,9.20
2019-03-09T16:27:43.240Z,9.30
2019-03-09T16:30:15.094Z,9.30
2019-03-09T16:32:43.803Z,8.50
2019-03-09T16:35:12.886Z,7.80
2019-03-09T16:37:41.749Z,7.80
2019-03-09T16:40:11.737Z,7.80
2019-03-09T16:42:40.589Z,7.90
2019-03-09T16:45:09.844Z,8.00
2019-03-09T16:47:38.548Z,8.00
2019-03-09T16:50:09.295Z,8.00
2019-03-09T16:52:38.020Z,8.10
2019-03-09T16:55:07.120Z,8.20
2019-03-09T16:57:36.077Z,8.20
2019-03-09T17:00:08.557Z,8.30
2019-03-09T17:02:37.668Z,8.40
2019-03-09T17:05:06.454Z,8.30
2019-03-09T17:07:35.177Z,8.30
2019-03-09T17:10:06.177Z,8.30
2019-03-09T17:12:35.835Z,8.20
2019-03-09T17:15:05.102Z,8.30
2019-03-09T17:17:33.932Z,8.20
2019-03-09T17:20:03.159Z,8.20
2019-03-09T17:22:33.332Z,8.10
2019-03-09T17:25:02.234Z,8.10
2019-03-09T17:27:31.027Z,8.20
2019-03-09T17:29:59.940Z,8.10
2019-03-09T17:32:28.636Z,8.10
2019-03-09T17:34:57.993Z,8.10
2019-03-09T17:37:26.703Z,8.20
2019-03-09T17:39:55.872Z,8.20
2019-03-09T17:42:24.635Z,8.20
2019-03-09T17:44:53.648Z,8.20
2019-03-09T17:47:22.352Z,8.20
2019-03-09T17:49:51.183Z,8.20
2019-03-09T17:52:20.475Z,8.20
2019-03-09T17:54:49.164Z,8.20
2019-03-09T17:57:17.864Z,8.20
2019-03-09T17:59:47.088Z,8.20
2019-03-09T18:02:16.076Z,8.20
2019-03-09T18:04:44.936Z,8.20
2019-03-09T18:07:13.629Z,8.20
2019-03-09T18:09:42.556Z,8.20
2019-03-09T18:12:11.432Z,8.20
2019-03-09T18:14:43.297Z,8.20
2019-03-09T18:17:12.336Z,8.20
2019-03-09T18:19:41.108Z,8.10
2019-03-09T18:22:09.815Z,8.10
2019-03-09T18:24:38.735Z,8.10
2019-03-09T18:27:07.926Z,8.10
2019-03-09T18:29:36.632Z,8.10
2019-03-09T18:32:05.425Z,8.00
2019-03-09T18:34:34.402Z,8.00
2019-03-09T18:37:03.276Z,8.10
2019-03-09T18:39:31.974Z,8.00
2019-03-09T18:42:01.998Z,8.00
2019-03-09T18:44:30.688Z,8.10
2019-03-09T18:46:59.656Z,8.10
2019-03-09T18:49:28.373Z,8.10
2019-03-09T18:51:57.344Z,8.10
2019-03-09T18:54:26.200Z,8.10
2019-03-09T18:56:54.912Z,8.00
2019-03-09T18:59:23.628Z,8.00
2019-03-09T19:01:52.657Z,8.00
2019-03-09T19:04:21.367Z,8.00
2019-03-09T19:06:50.068Z,8.00
2019-03-09T19:09:19.258Z,8.00
2019-03-09T19:11:47.966Z,8.00
2019-03-09T19:14:17.396Z,8.00
2019-03-09T19:16:46.549Z,8.00
2019-03-09T19:19:15.428Z,8.00
2019-03-09T19:21:44.187Z,8.00
2019-03-09T19:24:13.716Z,7.90
2019-03-09T19:26:42.496Z,7.90
2019-03-09T19:29:11.616Z,7.90
2019-03-09T19:31:40.316Z,7.90
2019-03-09T19:34:09.201Z,7.90
2019-03-09T19:36:37.952Z,7.80
2019-03-09T19:39:08.592Z,7.90
2019-03-09T19:41:37.780Z,7.80
2019-03-09T19:44:06.532Z,7.80
2019-03-09T19:46:35.255Z,7.90
2019-03-09T19:49:04.292Z,7.90
2019-03-09T19:51:32.996Z,7.90
2019-03-09T19:54:01.948Z,7.90
2019-03-09T19:56:30.992Z,7.90
2019-03-09T19:58:59.908Z,7.90
2019-03-09T20:01:28.768Z,7.80
2019-03-09T20:03:58.088Z,7.80
2019-03-09T20:06:26.889Z,7.80
2019-03-09T20:08:55.668Z,7.80
2019-03-09T20:11:24.756Z,7.80
2019-03-09T20:13:53.512Z,7.90
2019-03-09T20:16:22.362Z,7.90
2019-03-09T20:18:51.659Z,7.90
2019-03-09T20:21:20.820Z,7.90
2019-03-09T20:23:51.460Z,7.80
2019-03-09T20:26:20.444Z,7.80
2019-03-09T20:28:49.213Z,7.90
2019-03-09T20:31:17.913Z,7.80
2019-03-09T20:33:46.840Z,7.80
2019-03-09T20:36:16.321Z,7.90
2019-03-09T20:38:45.314Z,7.90
2019-03-09T20:41:16.500Z,7.90
2019-03-09T20:43:45.190Z,7.90
2019-03-09T20:46:14.223Z,7.90
2019-03-09T20:48:43.320Z,7.90
2019-03-09T20:51:12.093Z,7.90
2019-03-09T20:53:40.791Z,8.00
2019-03-09T20:56:11.612Z,8.00
2019-03-09T20:58:40.628Z,7.90
2019-03-09T21:01:09.336Z,8.00
2019-03-09T21:03:39.497Z,8.00
2019-03-09T21:06:08.650Z,8.00
2019-03-09T21:08:37.615Z,8.00
2019-03-09T21:11:06.536Z,8.00
2019-03-09T21:13:35.289Z,8.10
2019-03-09T21:16:06.248Z,8.10
2019-03-09T21:18:36.044Z,8.10
2019-03-09T21:21:05.113Z,8.20
2019-03-09T21:23:35.470Z,8.20
2019-03-09T21:26:04.447Z,8.20
2019-03-09T21:28:36.209Z,8.20
2019-03-09T21:31:05.332Z,8.30
2019-03-09T21:33:34.174Z,8.20
2019-03-09T21:36:03.173Z,8.20
2019-03-09T21:38:32.149Z,8.20
2019-03-09T21:41:01.089Z,8.20
2019-03-09T21:43:29.804Z,8.20
2019-03-09T21:46:00.475Z,8.20
2019-03-09T21:48:29.202Z,8.20
2019-03-09T21:50:58.006Z,8.20
2019-03-09T21:53:26.822Z,8.20
2019-03-09T21:55:55.784Z,8.20
2019-03-09T21:58:24.474Z,8.20
2019-03-09T22:00:53.620Z,8.30
2019-03-09T22:03:22.570Z,8.30
2019-03-09T22:05:51.264Z,8.20
2019-03-09T22:08:20.153Z,8.30
2019-03-09T22:10:49.158Z,8.20
2019-03-09T22:13:18.718Z,8.20
2019-03-09T22:15:47.630Z,8.20
2019-03-09T22:18:16.529Z,8.20
2019-03-09T22:20:45.516Z,8.30
2019-03-09T22:23:14.385Z,8.30
2019-03-09T22:25:43.086Z,8.30
2019-03-09T22:28:11.964Z,8.30
2019-03-09T22:30:40.661Z,8.20
2019-03-09T22:33:09.381Z,8.30
2019-03-09T22:35:42.045Z,8.30
2019-03-09T22:38:11.124Z,8.30
2019-03-09T22:40:39.933Z,8.30
2019-03-09T22:43:08.620Z,8.30
2019-03-09T22:45:38.000Z,8.30
2019-03-09T22:48:06.806Z,8.30
2019-03-09T22:50:36.187Z,8.30
2019-03-09T22:53:05.316Z,8.30
2019-03-09T22:55:34.020Z,8.30
2019-03-09T22:58:03.464Z,8.30
2019-03-09T23:00:32.556Z,8.30
2019-03-09T23:03:01.299Z,8.40
2019-03-09T23:05:31.188Z,8.30
2019-03-09T23:07:59.896Z,8.40
2019-03-09T23:10:29.327Z,8.40
2019-03-09T23:12:58.024Z,8.40
2019-03-09T23:15:26.916Z,8.40
2019-03-09T23:17:55.618Z,8.40
2019-03-09T23:20:24.503Z,8.50
2019-03-09T23:22:55.045Z,8.50
2019-03-09T23:25:24.500Z,8.50
2019-03-09T23:27:53.271Z,8.50
2019-03-09T23:30:22.597Z,8.50
2019-03-09T23:32:51.368Z,8.50
2019-03-09T23:35:21.072Z,8.50
2019-03-09T23:37:50.133Z,8.50
2019-03-09T23:40:19.432Z,8.50
2019-03-09T23:42:48.227Z,8.50
2019-03-09T23:45:17.517Z,8.50
2019-03-09T23:47:46.569Z,8.50
2019-03-09T23:50:16.476Z,8.50
2019-03-09T23:52:45.387Z,8.50
2019-03-09T23:55:22.009Z,8.60
2019-03-09T23:57:46.835Z,8.50
